Time;durP1;ratioP1;P1;durP2;ratioP2;P2;SDS_P1;SDS_P2;PMS_P1;PMS_P2;Temp;Humidity;BMP_temperature;BMP_pressure;BME280_temperature;BME280_humidity;BME280_pressure;Samples;Min_cycle;Max_cycle;Signal;HPM_P1;HPM_P2
2020/08/02 00:02:49;;;;;;;2.97;2.76;;;;;;;22.57;62.04;100075.42;;;;-53
2020/08/02 00:05:49;;;;;;;3.10;2.72;;;;;;;22.57;62.04;100071.59;;;;-53
2020/08/02 00:08:49;;;;;;;3.15;2.83;;;;;;;22.56;62.07;100068.17;;;;-54
2020/08/02 00:11:49;;;;;;;3.17;2.83;;;;;;;22.56;62.02;100066.70;;;;-53
2020/08/02 00:14:49;;;;;;;3.08;2.80;;;;;;;22.55;62.04;100063.77;;;;-53
2020/08/02 00:17:49;;;;;;;2.99;2.74;;;;;;;22.55;62.08;100064.91;;;;-53
2020/08/02 00:20:49;;;;;;;2.99;2.73;;;;;;;22.55;62.04;100064.91;;;;-53
2020/08/02 00:23:49;;;;;;;3.13;2.83;;;;;;;22.55;62.04;100062.89;;;;-53
2020/08/02 00:26:49;;;;;;;3.13;2.88;;;;;;;22.55;62.04;100060.52;;;;-53
2020/08/02 00:29:49;;;;;;;3.19;2.89;;;;;;;22.55;62.04;100061.42;;;;-54
2020/08/02 00:32:49;;;;;;;3.33;3.02;;;;;;;22.54;62.03;100066.50;;;;-54
2020/08/02 00:35:49;;;;;;;2.89;2.69;;;;;;;22.54;62.09;100068.29;;;;-54
2020/08/02 00:38:49;;;;;;;3.72;3.05;;;;;;;22.54;62.13;100072.05;;;;-53
2020/08/02 00:41:49;;;;;;;3.20;2.76;;;;;;;22.54;62.04;100075.64;;;;-53
2020/08/02 00:44:48;;;;;;;2.99;2.69;;;;;;;22.53;62.04;100078.67;;;;-54
2020/08/02 00:47:49;;;;;;;3.26;2.96;;;;;;;22.53;62.08;100079.91;;;;-53
2020/08/02 00:50:48;;;;;;;3.43;3.13;;;;;;;22.53;62.08;100077.69;;;;-54
2020/08/02 00:53:49;;;;;;;4.24;2.89;;;;;;;22.52;62.00;100073.70;;;;-53
2020/08/02 00:56:49;;;;;;;3.11;2.76;;;;;;;22.52;62.09;100077.37;;;;-54
2020/08/02 00:59:49;;;;;;;3.02;2.69;;;;;;;22.52;61.98;100069.38;;;;-53
2020/08/02 01:02:49;;;;;;;3.08;2.76;;;;;;;22.52;61.99;100061.96;;;;-53
2020/08/02 01:05:49;;;;;;;2.95;2.74;;;;;;;22.52;62.03;100058.20;;;;-54
2020/08/02 01:08:49;;;;;;;3.06;2.76;;;;;;;22.51;62.08;100059.83;;;;-53
2020/08/02 01:11:48;;;;;;;2.88;2.65;;;;;;;22.50;62.10;100060.16;;;;-53
2020/08/02 01:14:49;;;;;;;3.74;2.87;;;;;;;22.51;62.05;100064.56;;;;-53
2020/08/02 01:17:49;;;;;;;2.99;2.69;;;;;;;22.50;62.06;100063.36;;;;-53
2020/08/02 01:20:49;;;;;;;4.04;2.71;;;;;;;22.50;62.07;100063.10;;;;-53
2020/08/02 01:23:48;;;;;;;2.98;2.70;;;;;;;22.50;62.05;100069.56;;;;-54
2020/08/02 01:26:49;;;;;;;2.70;2.50;;;;;;;22.50;62.06;100072.83;;;;-53
2020/08/02 01:29:49;;;;;;;3.17;2.87;;;;;;;22.49;62.11;100072.44;;;;-53
2020/08/02 01:32:49;;;;;;;3.09;2.79;;;;;;;22.49;62.13;100064.83;;;;-54
2020/08/02 01:35:49;;;;;;;3.39;2.91;;;;;;;22.49;62.02;100059.92;;;;-53
2020/08/02 01:38:49;;;;;;;2.91;2.71;;;;;;;22.49;62.02;100057.47;;;;-53
2020/08/02 01:41:49;;;;;;;3.16;2.89;;;;;;;22.48;62.02;100056.44;;;;-53
2020/08/02 01:44:49;;;;;;;2.90;2.63;;;;;;;22.49;62.08;100059.28;;;;-53
2020/08/02 01:47:48;;;;;;;2.76;2.56;;;;;;;22.49;62.05;100060.17;;;;-53
2020/08/02 01:50:48;;;;;;;2.72;2.52;;;;;;;22.49;62.12;100055.36;;;;-53
2020/08/02 01:53:49;;;;;;;3.21;2.95;;;;;;;22.48;62.10;100049.41;;;;-53
2020/08/02 01:56:48;;;;;;;3.17;2.89;;;;;;;22.48;62.11;100037.34;;;;-53
2020/08/02 01:59:48;;;;;;;2.89;2.69;;;;;;;22.48;62.10;100033.58;;;;-53
2020/08/02 02:02:48;;;;;;;3.25;2.99;;;;;;;22.48;62.03;100032.02;;;;-54
2020/08/02 02:05:49;;;;;;;3.19;2.91;;;;;;;22.48;62.06;100026.00;;;;-53
2020/08/02 02:08:48;;;;;;;2.99;2.69;;;;;;;22.48;62.04;100024.03;;;;-53
2020/08/02 02:11:49;;;;;;;2.81;2.61;;;;;;;22.47;62.09;100018.47;;;;-53
2020/08/02 02:14:49;;;;;;;3.19;2.84;;;;;;;22.47;62.06;100021.02;;;;-53
2020/08/02 02:17:48;;;;;;;3.13;2.93;;;;;;;22.47;62.06;100033.66;;;;-53
2020/08/02 02:20:48;;;;;;;3.15;2.85;;;;;;;22.47;62.04;100039.31;;;;-53
2020/08/02 02:23:49;;;;;;;2.90;2.70;;;;;;;22.47;62.07;100039.22;;;;-53
2020/08/02 02:26:48;;;;;;;2.99;2.79;;;;;;;22.47;62.08;100050.41;;;;-54
2020/08/02 02:29:49;;;;;;;3.14;2.84;;;;;;;22.46;62.04;100050.25;;;;-54
2020/08/02 02:33:04;;;;;;;2.75;2.55;;;;;;;22.47;62.15;100050.33;;;;-54
2020/08/02 02:35:49;;;;;;;3.23;2.93;;;;;;;22.46;62.13;100050.34;;;;-53
2020/08/02 02:38:48;;;;;;;2.74;2.54;;;;;;;22.46;62.11;100049.77;;;;-54
2020/08/02 02:41:49;;;;;;;2.83;2.59;;;;;;;22.46;62.01;100043.72;;;;-54
2020/08/02 02:44:49;;;;;;;3.01;2.71;;;;;;;22.46;62.08;100038.92;;;;-54
2020/08/02 02:47:48;;;;;;;2.96;2.76;;;;;;;22.46;62.06;100041.94;;;;-54
2020/08/02 02:50:48;;;;;;;2.91;2.71;;;;;;;22.46;62.03;100044.72;;;;-54
2020/08/02 02:53:48;;;;;;;2.83;2.63;;;;;;;22.46;62.02;100052.31;;;;-53
2020/08/02 02:56:48;;;;;;;3.06;2.86;;;;;;;22.45;62.05;100055.23;;;;-54
2020/08/02 02:59:49;;;;;;;2.85;2.60;;;;;;;22.45;62.06;100056.87;;;;-53
2020/08/02 03:02:49;;;;;;;2.89;2.60;;;;;;;22.44;62.03;100051.58;;;;-54
2020/08/02 03:05:48;;;;;;;3.01;2.60;;;;;;;22.45;62.06;100055.48;;;;-53
2020/08/02 03:08:48;;;;;;;2.86;2.66;;;;;;;22.44;62.03;100057.87;;;;-53
2020/08/02 03:11:49;;;;;;;2.98;2.73;;;;;;;22.44;62.07;100062.70;;;;-54
2020/08/02 03:15:49;;;;;;;2.49;2.29;;;;;;;22.44;62.18;100059.11;;;;-53
2020/08/02 03:18:49;;;;;;;2.78;2.56;;;;;;;22.44;62.10;100056.90;;;;-54
2020/08/02 03:21:49;;;;;;;2.80;2.60;;;;;;;22.44;62.15;100052.99;;;;-53
2020/08/02 03:26:49;;;;;;;3.04;2.71;;;;;;;22.43;62.08;100053.63;;;;-53
2020/08/02 03:29:49;;;;;;;2.89;2.69;;;;;;;22.43;62.12;100052.02;;;;-53
2020/08/02 03:32:49;;;;;;;3.11;2.71;;;;;;;22.42;62.13;100051.77;;;;-53
2020/08/02 03:35:49;;;;;;;2.79;2.53;;;;;;;22.42;62.08;100061.42;;;;-54
2020/08/02 03:38:49;;;;;;;2.72;2.52;;;;;;;22.42;62.15;100068.92;;;;-53
2020/08/02 03:41:49;;;;;;;2.87;2.67;;;;;;;22.41;62.09;100067.64;;;;-53
2020/08/02 03:44:49;;;;;;;2.75;2.55;;;;;;;22.42;62.13;100057.58;;;;-53
2020/08/02 03:47:49;;;;;;;2.79;2.59;;;;;;;22.42;62.07;100065.27;;;;-56
2020/08/02 03:50:49;;;;;;;3.09;2.83;;;;;;;22.42;62.14;100072.27;;;;-53
2020/08/02 03:53:49;;;;;;;2.95;2.75;;;;;;;22.42;62.19;100074.64;;;;-54
2020/08/02 03:56:49;;;;;;;2.93;2.73;;;;;;;22.41;62.19;100076.13;;;;-53
2020/08/02 03:59:49;;;;;;;2.81;2.61;;;;;;;22.42;62.19;100071.88;;;;-54
2020/08/02 04:02:49;;;;;;;3.03;2.83;;;;;;;22.42;62.13;100056.84;;;;-53
2020/08/02 04:05:49;;;;;;;4.14;2.81;;;;;;;22.42;62.16;100062.48;;;;-53
2020/08/02 04:08:49;;;;;;;2.81;2.43;;;;;;;22.42;62.16;100073.43;;;;-54
2020/08/02 04:11:49;;;;;;;2.76;2.56;;;;;;;22.42;62.12;100072.13;;;;-53
2020/08/02 04:15:16;;;;;;;2.99;2.79;;;;;;;22.41;62.24;100065.66;;;;-54
2020/08/02 04:17:49;;;;;;;2.84;2.64;;;;;;;22.41;62.17;100059.78;;;;-54
2020/08/02 04:20:49;;;;;;;2.55;2.35;;;;;;;22.41;62.21;100065.17;;;;-54
2020/08/02 04:23:49;;;;;;;3.05;2.85;;;;;;;22.40;62.17;100065.75;;;;-54
2020/08/02 04:26:49;;;;;;;3.08;2.79;;;;;;;22.41;62.17;100075.86;;;;-53
2020/08/02 04:29:49;;;;;;;2.60;2.40;;;;;;;22.41;62.17;100081.02;;;;-54
2020/08/02 04:32:49;;;;;;;3.07;2.77;;;;;;;22.40;62.13;100080.05;;;;-53
2020/08/02 04:35:49;;;;;;;2.69;2.49;;;;;;;22.41;62.19;100074.06;;;;-53
2020/08/02 04:38:49;;;;;;;2.83;2.62;;;;;;;22.40;62.17;100078.66;;;;-53
2020/08/02 04:41:49;;;;;;;2.63;2.43;;;;;;;22.40;62.11;100081.44;;;;-54
2020/08/02 04:44:49;;;;;;;3.09;2.87;;;;;;;22.40;62.15;100081.59;;;;-54
2020/08/02 04:47:49;;;;;;;2.93;2.73;;;;;;;22.40;62.15;100088.22;;;;-54
2020/08/02 04:50:49;;;;;;;2.83;2.63;;;;;;;22.40;62.17;100087.89;;;;-53
2020/08/02 04:53:49;;;;;;;2.88;2.68;;;;;;;22.40;62.13;100084.45;;;;-53
2020/08/02 04:56:48;;;;;;;2.87;2.67;;;;;;;22.40;62.12;100081.75;;;;-53
2020/08/02 04:59:49;;;;;;;2.92;2.72;;;;;;;22.40;62.16;100076.22;;;;-53
2020/08/02 05:02:49;;;;;;;2.85;2.65;;;;;;;22.39;62.22;100077.37;;;;-54
2020/08/02 05:05:49;;;;;;;2.96;2.70;;;;;;;22.39;62.25;100088.89;;;;-53
2020/08/02 05:08:49;;;;;;;2.83;2.63;;;;;;;22.40;62.16;100108.21;;;;-54
2020/08/02 05:11:49;;;;;;;2.73;2.53;;;;;;;22.40;62.15;100097.37;;;;-53
2020/08/02 05:14:49;;;;;;;2.86;2.66;;;;;;;22.39;62.17;100105.55;;;;-53
2020/08/02 05:17:49;;;;;;;2.76;2.56;;;;;;;22.39;62.17;100102.61;;;;-54
2020/08/02 05:20:49;;;;;;;2.73;2.52;;;;;;;22.39;62.14;100105.88;;;;-54
2020/08/02 05:23:49;;;;;;;3.02;2.82;;;;;;;22.39;62.21;100109.03;;;;-53
2020/08/02 05:26:49;;;;;;;2.66;2.46;;;;;;;22.39;62.16;100115.49;;;;-54
2020/08/02 05:29:49;;;;;;;2.73;2.53;;;;;;;22.39;62.24;100124.82;;;;-53
2020/08/02 05:32:49;;;;;;;3.16;2.96;;;;;;;22.39;62.27;100130.28;;;;-53
2020/08/02 05:35:49;;;;;;;3.07;2.83;;;;;;;22.39;62.24;100128.55;;;;-54
2020/08/02 05:38:49;;;;;;;2.73;2.53;;;;;;;22.39;62.26;100131.57;;;;-54
2020/08/02 05:41:49;;;;;;;2.96;2.76;;;;;;;22.39;62.23;100133.78;;;;-54
2020/08/02 05:44:49;;;;;;;3.07;2.85;;;;;;;22.39;62.18;100133.37;;;;-53
2020/08/02 05:47:49;;;;;;;2.72;2.52;;;;;;;22.39;62.23;100141.70;;;;-54
2020/08/02 05:50:49;;;;;;;2.67;2.47;;;;;;;22.39;62.22;100143.66;;;;-54
2020/08/02 05:53:49;;;;;;;2.81;2.61;;;;;;;22.38;62.26;100144.97;;;;-53
2020/08/02 05:56:49;;;;;;;2.61;2.41;;;;;;;22.38;62.24;100147.42;;;;-53
2020/08/02 05:59:51;;;;;;;2.57;2.37;;;;;;;22.39;62.23;100144.72;;;;-53
2020/08/02 06:02:49;;;;;;;2.41;2.25;;;;;;;22.38;62.23;100145.47;;;;-53
2020/08/02 06:05:49;;;;;;;3.05;2.85;;;;;;;22.39;62.26;100147.17;;;;-54
2020/08/02 06:08:49;;;;;;;2.92;2.72;;;;;;;22.38;62.33;100143.75;;;;-53
2020/08/02 06:11:49;;;;;;;2.61;2.41;;;;;;;22.38;62.26;100142.69;;;;-53
2020/08/02 06:15:49;;;;;;;2.48;2.28;;;;;;;22.38;62.25;100150.22;;;;-54
2020/08/02 06:18:49;;;;;;;2.51;2.31;;;;;;;22.38;62.33;100158.70;;;;-53
2020/08/02 06:21:49;;;;;;;2.98;2.69;;;;;;;22.38;62.21;100159.84;;;;-53
2020/08/02 06:24:49;;;;;;;2.41;2.21;;;;;;;22.37;62.30;100161.98;;;;-54
2020/08/02 06:27:49;;;;;;;2.49;2.29;;;;;;;22.37;62.27;100158.16;;;;-54
2020/08/02 06:30:48;;;;;;;2.15;2.05;;;;;;;22.37;62.34;100149.57;;;;-53
2020/08/02 06:33:49;;;;;;;2.56;2.36;;;;;;;22.37;62.28;100143.62;;;;-53
2020/08/02 06:36:49;;;;;;;2.81;2.61;;;;;;;22.38;62.30;100150.62;;;;-53
2020/08/02 06:39:49;;;;;;;2.52;2.32;;;;;;;22.37;62.30;100150.55;;;;-54
2020/08/02 06:42:49;;;;;;;2.65;2.45;;;;;;;22.37;62.24;100156.41;;;;-53
2020/08/02 06:45:49;;;;;;;2.71;2.51;;;;;;;22.36;62.25;100161.98;;;;-53
2020/08/02 06:48:49;;;;;;;2.68;2.48;;;;;;;22.37;62.28;100155.69;;;;-53
2020/08/02 06:51:49;;;;;;;2.47;2.27;;;;;;;22.36;62.27;100158.22;;;;-54
2020/08/02 06:54:49;;;;;;;2.51;2.31;;;;;;;22.37;62.29;100163.36;;;;-53
2020/08/02 06:58:49;;;;;;;2.48;2.28;;;;;;;22.36;62.31;100163.94;;;;-53
2020/08/02 07:01:49;;;;;;;10.80;3.16;;;;;;;22.36;62.57;100159.53;;;;-55
2020/08/02 07:04:49;;;;;;;5.85;2.97;;;;;;;22.39;62.62;100158.11;;;;-53
2020/08/02 07:07:49;;;;;;;3.79;2.88;;;;;;;22.39;62.87;100160.23;;;;-49
2020/08/02 07:10:49;;;;;;;6.32;3.09;;;;;;;22.40;62.60;100161.70;;;;-49
2020/08/02 07:13:49;;;;;;;3.49;2.71;;;;;;;22.40;62.56;100160.23;;;;-49
2020/08/02 07:16:49;;;;;;;6.41;2.66;;;;;;;22.40;62.52;100163.89;;;;-49
2020/08/02 07:19:48;;;;;;;4.15;2.68;;;;;;;22.40;62.52;100163.56;;;;-49
2020/08/02 07:22:49;;;;;;;3.66;3.01;;;;;;;22.41;62.51;100157.95;;;;-50
2020/08/02 07:25:49;;;;;;;2.88;2.68;;;;;;;22.41;62.50;100165.13;;;;-49
2020/08/02 07:28:49;;;;;;;4.16;3.24;;;;;;;22.42;62.49;100171.07;;;;-49
2020/08/02 07:31:49;;;;;;;3.45;3.15;;;;;;;22.42;62.52;100172.37;;;;-49
2020/08/02 07:34:49;;;;;;;3.11;2.91;;;;;;;22.42;62.51;100175.80;;;;-49
2020/08/02 07:37:49;;;;;;;3.33;2.71;;;;;;;22.43;62.47;100178.41;;;;-49
2020/08/02 07:40:49;;;;;;;3.19;2.95;;;;;;;22.41;62.45;100177.70;;;;-50
2020/08/02 07:43:49;;;;;;;3.11;2.81;;;;;;;22.42;62.58;100177.69;;;;-49
2020/08/02 07:46:49;;;;;;;3.51;3.17;;;;;;;22.43;62.50;100181.50;;;;-49
2020/08/02 07:49:49;;;;;;;3.06;2.77;;;;;;;22.43;62.51;100185.50;;;;-49
2020/08/02 07:52:49;;;;;;;3.23;3.01;;;;;;;22.43;62.53;100190.16;;;;-49
2020/08/02 07:55:49;;;;;;;3.70;3.04;;;;;;;22.43;62.54;100190.41;;;;-50
2020/08/02 07:58:49;;;;;;;3.19;2.83;;;;;;;22.43;62.52;100190.16;;;;-49
2020/08/02 08:01:49;;;;;;;3.29;2.99;;;;;;;22.43;62.57;100193.67;;;;-49
2020/08/02 08:04:49;;;;;;;3.26;2.93;;;;;;;22.43;62.49;100193.92;;;;-48
2020/08/02 08:07:49;;;;;;;3.41;3.11;;;;;;;22.43;62.56;100193.52;;;;-50
2020/08/02 08:10:49;;;;;;;3.57;3.28;;;;;;;22.44;62.55;100199.23;;;;-49
2020/08/02 08:13:48;;;;;;;3.18;2.95;;;;;;;22.44;62.57;100203.55;;;;-49
2020/08/02 08:16:49;;;;;;;3.28;2.98;;;;;;;22.44;62.57;100207.47;;;;-49
2020/08/02 08:19:49;;;;;;;3.46;3.16;;;;;;;22.44;62.61;100200.20;;;;-49
2020/08/02 08:22:49;;;;;;;3.29;2.99;;;;;;;22.45;62.49;100206.48;;;;-49
2020/08/02 08:25:49;;;;;;;3.59;3.29;;;;;;;22.45;62.53;100207.86;;;;-49
2020/08/02 08:28:49;;;;;;;3.06;2.83;;;;;;;22.44;62.55;100209.27;;;;-49
2020/08/02 08:31:49;;;;;;;3.45;3.15;;;;;;;22.45;62.49;100213.50;;;;-49
2020/08/02 08:34:49;;;;;;;3.65;3.35;;;;;;;22.44;62.50;100218.41;;;;-49
2020/08/02 08:37:49;;;;;;;4.02;2.99;;;;;;;22.45;62.52;100219.29;;;;-49
2020/08/02 08:40:49;;;;;;;3.15;2.91;;;;;;;22.45;62.49;100219.63;;;;-49
2020/08/02 08:43:48;;;;;;;3.30;3.04;;;;;;;22.45;62.54;100220.76;;;;-49
2020/08/02 08:46:49;;;;;;;3.89;3.49;;;;;;;22.45;62.50;100218.81;;;;-50
2020/08/02 08:49:49;;;;;;;8.79;3.84;;;;;;;22.48;62.79;100219.91;;;;-53
2020/08/02 08:52:49;;;;;;;4.47;3.49;;;;;;;22.50;62.85;100216.56;;;;-49
2020/08/02 08:55:49;;;;;;;5.65;3.25;;;;;;;22.51;62.88;100221.44;;;;-48
2020/08/02 08:58:49;;;;;;;3.73;3.23;;;;;;;22.52;62.91;100222.98;;;;-46
2020/08/02 09:01:49;;;;;;;5.83;3.63;;;;;;;22.54;62.93;100222.73;;;;-50
2020/08/02 09:04:49;;;;;;;3.89;3.49;;;;;;;22.55;63.06;100228.52;;;;-48
2020/08/02 09:07:49;;;;;;;9.03;3.44;;;;;;;22.56;63.20;100233.81;;;;-50
2020/08/02 09:10:49;;;;;;;3.65;3.35;;;;;;;22.57;63.17;100234.86;;;;-45
2020/08/02 09:13:48;;;;;;;3.59;3.27;;;;;;;22.58;63.21;100236.73;;;;-45
2020/08/02 09:16:48;;;;;;;3.76;3.43;;;;;;;22.59;63.24;100233.94;;;;-54
2020/08/02 09:19:48;;;;;;;5.06;4.29;;;;;;;22.61;63.29;100235.95;;;;-50
2020/08/02 09:22:48;;;;;;;4.50;4.09;;;;;;;22.62;63.17;100238.00;;;;-57
2020/08/02 09:25:49;;;;;;;4.26;3.86;;;;;;;22.64;63.17;100242.39;;;;-48
2020/08/02 09:28:49;;;;;;;9.26;3.45;;;;;;;22.65;63.15;100237.55;;;;-51
2020/08/02 09:31:49;;;;;;;7.15;5.19;;;;;;;22.67;63.17;100249.28;;;;-51
2020/08/02 09:34:49;;;;;;;7.09;3.88;;;;;;;22.67;63.08;100255.91;;;;-51
2020/08/02 09:37:49;;;;;;;4.83;4.35;;;;;;;22.65;63.11;100257.64;;;;-51
2020/08/02 09:40:49;;;;;;;5.35;4.50;;;;;;;22.65;63.29;100265.89;;;;-61
2020/08/02 09:43:48;;;;;;;6.31;4.78;;;;;;;22.67;63.29;100269.64;;;;-51
2020/08/02 09:46:49;;;;;;;5.89;4.51;;;;;;;22.68;63.23;100278.03;;;;-53
2020/08/02 09:49:48;;;;;;;4.32;3.92;;;;;;;22.68;63.27;100274.52;;;;-47
2020/08/02 09:52:49;;;;;;;6.51;4.53;;;;;;;22.69;63.28;100270.52;;;;-50
2020/08/02 09:55:49;;;;;;;5.43;5.03;;;;;;;22.70;63.25;100268.38;;;;-50
2020/08/02 09:58:49;;;;;;;5.07;4.59;;;;;;;22.72;63.27;100269.66;;;;-50
2020/08/02 10:01:49;;;;;;;5.41;4.66;;;;;;;22.74;63.18;100273.08;;;;-59
2020/08/02 10:04:49;;;;;;;5.90;4.22;;;;;;;22.73;63.19;100269.33;;;;-50
2020/08/02 10:07:49;;;;;;;4.87;4.07;;;;;;;22.74;63.24;100276.49;;;;-49
2020/08/02 10:10:49;;;;;;;5.48;4.98;;;;;;;22.74;63.19;100279.03;;;;-48
2020/08/02 10:13:49;;;;;;;5.65;5.04;;;;;;;22.75;63.21;100277.98;;;;-52
2020/08/02 10:16:48;;;;;;;7.97;5.14;;;;;;;22.75;63.26;100278.31;;;;-55
2020/08/02 10:19:48;;;;;;;6.03;5.01;;;;;;;22.75;63.15;100280.49;;;;-48
2020/08/02 10:22:49;;;;;;;5.33;4.69;;;;;;;22.75;63.17;100276.98;;;;-49
2020/08/02 10:25:49;;;;;;;6.91;4.96;;;;;;;22.76;63.19;100275.73;;;;-46
2020/08/02 10:28:49;;;;;;;5.48;4.98;;;;;;;22.78;63.21;100273.84;;;;-49
2020/08/02 10:31:49;;;;;;;5.82;5.17;;;;;;;22.78;63.22;100272.22;;;;-46
2020/08/02 10:34:49;;;;;;;6.41;4.89;;;;;;;22.78;63.14;100271.64;;;;-45
2020/08/02 10:37:49;;;;;;;5.11;4.61;;;;;;;22.76;63.15;100269.28;;;;-45
2020/08/02 10:40:49;;;;;;;8.29;5.27;;;;;;;22.76;63.17;100267.56;;;;-46
2020/08/02 10:43:48;;;;;;;6.03;5.48;;;;;;;22.75;63.20;100266.30;;;;-46
2020/08/02 10:46:48;;;;;;;6.64;5.83;;;;;;;22.74;63.17;100258.63;;;;-45
2020/08/02 10:49:49;;;;;;;6.41;5.87;;;;;;;22.75;63.17;100255.11;;;;-46
2020/08/02 10:52:49;;;;;;;5.70;5.23;;;;;;;22.73;63.16;100246.20;;;;-45
2020/08/02 10:55:49;;;;;;;6.56;5.74;;;;;;;22.73;63.12;100243.35;;;;-45
2020/08/02 10:58:49;;;;;;;6.25;5.75;;;;;;;22.72;63.12;100238.95;;;;-45
2020/08/02 11:01:49;;;;;;;6.64;6.05;;;;;;;22.72;63.12;100234.53;;;;-45
2020/08/02 11:04:49;;;;;;;7.63;5.54;;;;;;;22.71;63.10;100234.22;;;;-45
2020/08/02 11:07:49;;;;;;;6.03;5.53;;;;;;;22.69;63.15;100233.34;;;;-45
2020/08/02 11:10:49;;;;;;;6.54;5.87;;;;;;;22.70;63.04;100231.20;;;;-45
2020/08/02 11:13:48;;;;;;;5.63;5.19;;;;;;;22.70;62.94;100226.79;;;;-45
2020/08/02 11:16:48;;;;;;;7.29;5.60;;;;;;;22.71;62.92;100223.02;;;;-46
2020/08/02 11:19:48;;;;;;;5.77;5.27;;;;;;;22.71;62.96;100216.67;;;;-46
2020/08/02 11:22:48;;;;;;;7.42;6.79;;;;;;;22.71;62.93;100216.67;;;;-45
2020/08/02 11:25:49;;;;;;;6.11;5.35;;;;;;;22.70;62.91;100210.71;;;;-45
2020/08/02 11:28:49;;;;;;;5.31;4.90;;;;;;;22.70;62.86;100212.25;;;;-46
2020/08/02 11:31:49;;;;;;;6.03;5.39;;;;;;;22.70;62.84;100209.14;;;;-46
2020/08/02 11:34:49;;;;;;;7.55;6.70;;;;;;;22.71;62.85;100206.37;;;;-45
2020/08/02 11:37:49;;;;;;;6.84;5.60;;;;;;;22.70;62.79;100208.59;;;;-45
2020/08/02 11:40:49;;;;;;;6.25;5.75;;;;;;;22.70;62.78;100203.20;;;;-45
2020/08/02 11:43:48;;;;;;;6.78;5.84;;;;;;;22.70;62.76;100200.58;;;;-45
2020/08/02 11:46:48;;;;;;;7.03;6.45;;;;;;;22.69;62.76;100194.30;;;;-45
2020/08/02 11:49:48;;;;;;;5.85;5.27;;;;;;;22.69;62.75;100189.31;;;;-47
2020/08/02 11:52:49;;;;;;;6.78;6.26;;;;;;;22.69;62.72;100183.84;;;;-45
2020/08/02 11:55:49;;;;;;;7.77;7.17;;;;;;;22.70;62.66;100182.35;;;;-47
2020/08/02 11:58:49;;;;;;;7.48;6.90;;;;;;;22.69;62.67;100177.62;;;;-45
2020/08/02 12:01:49;;;;;;;5.63;5.14;;;;;;;22.69;62.67;100171.26;;;;-46
2020/08/02 12:04:49;;;;;;;6.59;6.09;;;;;;;22.69;62.69;100174.87;;;;-45
2020/08/02 12:07:49;;;;;;;6.43;5.80;;;;;;;22.69;62.71;100179.19;;;;-45
2020/08/02 12:10:49;;;;;;;6.35;5.85;;;;;;;22.68;62.65;100179.13;;;;-45
2020/08/02 12:13:48;;;;;;;6.13;5.51;;;;;;;22.69;62.69;100175.84;;;;-45
2020/08/02 12:16:48;;;;;;;6.48;5.96;;;;;;;22.69;62.64;100171.59;;;;-45
2020/08/02 12:19:48;;;;;;;8.05;7.21;;;;;;;22.68;62.69;100168.98;;;;-46
2020/08/02 12:22:48;;;;;;;6.89;6.27;;;;;;;22.69;62.85;100160.33;;;;-46
2020/08/02 12:25:48;;;;;;;7.56;6.91;;;;;;;22.69;62.83;100157.77;;;;-45
2020/08/02 12:28:48;;;;;;;8.58;7.89;;;;;;;22.72;62.90;100162.65;;;;-46
2020/08/02 12:31:49;;;;;;;8.09;7.02;;;;;;;22.73;63.05;100160.59;;;;-46
2020/08/02 12:34:49;;;;;;;7.82;7.18;;;;;;;22.74;63.03;100159.45;;;;-47
2020/08/02 12:37:49;;;;;;;7.33;6.71;;;;;;;22.75;63.03;100150.92;;;;-51
2020/08/02 12:40:48;;;;;;;7.97;7.27;;;;;;;22.76;63.15;100150.59;;;;-48
2020/08/02 12:43:48;;;;;;;14.83;7.11;;;;;;;22.79;63.51;100150.73;;;;-48
2020/08/02 12:46:48;;;;;;;16.35;6.14;;;;;;;22.82;63.67;100149.45;;;;-50
2020/08/02 12:49:49;;;;;;;18.69;4.91;;;;;;;22.84;64.03;100139.86;;;;-56
2020/08/02 12:52:49;;;;;;;11.90;4.95;;;;;;;22.86;63.67;100139.58;;;;-51
2020/08/02 12:55:49;;;;;;;13.97;5.61;;;;;;;22.87;63.93;100142.95;;;;-54
2020/08/02 12:59:49;;;;;;;24.39;4.98;;;;;;;22.87;64.12;100145.63;;;;-50
2020/08/02 13:02:49;;;;;;;17.08;5.38;;;;;;;22.87;64.09;100142.13;;;;-48
2020/08/02 13:05:49;;;;;;;12.43;5.13;;;;;;;22.88;63.93;100141.19;;;;-49
2020/08/02 13:08:48;;;;;;;13.11;5.44;;;;;;;22.89;63.96;100132.37;;;;-45
2020/08/02 13:12:44;;;;;;;12.87;4.79;;;;;;;22.89;63.69;100132.30;;;;-48
2020/08/02 13:14:48;;;;;;;9.97;4.91;;;;;;;22.87;63.65;100124.55;;;;-45
2020/08/02 13:17:48;;;;;;;12.32;4.95;;;;;;;22.88;63.58;100124.45;;;;-54
2020/08/02 13:20:48;;;;;;;10.85;4.36;;;;;;;22.88;63.47;100120.69;;;;-47
2020/08/02 13:23:48;;;;;;;11.71;4.79;;;;;;;22.90;63.40;100122.14;;;;-51
2020/08/02 13:26:49;;;;;;;7.63;4.33;;;;;;;22.90;63.29;100118.94;;;;-49
2020/08/02 13:29:49;;;;;;;9.04;4.97;;;;;;;22.91;63.29;100116.83;;;;-51
2020/08/02 13:32:49;;;;;;;9.69;4.59;;;;;;;22.91;63.36;100117.16;;;;-52
2020/08/02 13:35:48;;;;;;;7.65;4.42;;;;;;;22.92;63.57;100112.55;;;;-57
2020/08/02 13:38:48;;;;;;;8.17;4.71;;;;;;;22.94;63.50;100110.09;;;;-47
2020/08/02 13:41:48;;;;;;;8.71;4.89;;;;;;;22.95;63.59;100105.39;;;;-51
2020/08/02 13:44:48;;;;;;;6.78;4.51;;;;;;;22.95;63.70;100099.02;;;;-47
2020/08/02 13:47:49;;;;;;;6.53;4.11;;;;;;;22.95;63.62;100095.04;;;;-58
2020/08/02 13:50:49;;;;;;;7.97;2.73;;;;;;;22.97;63.45;100098.27;;;;-58
2020/08/02 13:53:49;;;;;;;4.35;2.73;;;;;;;22.98;63.52;100101.53;;;;-47
2020/08/02 13:56:49;;;;;;;5.03;2.79;;;;;;;22.98;63.53;100097.51;;;;-48
2020/08/02 13:59:49;;;;;;;6.60;2.97;;;;;;;22.99;63.48;100096.02;;;;-45
2020/08/02 14:02:48;;;;;;;7.43;3.07;;;;;;;22.99;63.51;100099.47;;;;-53
2020/08/02 14:05:49;;;;;;;7.22;2.95;;;;;;;23.00;63.47;100103.05;;;;-53
2020/08/02 14:08:48;;;;;;;5.29;2.61;;;;;;;23.00;63.52;100100.11;;;;-47
2020/08/02 14:11:49;;;;;;;6.83;2.56;;;;;;;23.01;63.45;100095.61;;;;-46
2020/08/02 14:14:48;;;;;;;3.69;2.69;;;;;;;23.01;63.42;100091.84;;;;-47
2020/08/02 14:17:48;;;;;;;7.97;2.73;;;;;;;23.02;63.51;100098.22;;;;-51
2020/08/02 14:20:49;;;;;;;5.82;2.83;;;;;;;23.02;63.62;100093.33;;;;-56
2020/08/02 14:23:48;;;;;;;9.52;2.82;;;;;;;23.02;63.30;100093.08;;;;-52
2020/08/02 14:26:49;;;;;;;6.29;3.17;;;;;;;23.03;63.16;100093.72;;;;-50
2020/08/02 14:29:48;;;;;;;6.73;3.23;;;;;;;23.02;63.31;100093.01;;;;-49
2020/08/02 14:36:48;;;;;;;7.07;3.23;;;;;;;23.01;63.16;100093.25;;;;-52
2020/08/02 14:39:48;;;;;;;6.03;2.75;;;;;;;23.03;63.11;100097.39;;;;-55
2020/08/02 14:42:48;;;;;;;7.97;3.21;;;;;;;23.03;63.05;100092.40;;;;-51
2020/08/02 14:45:49;;;;;;;6.89;3.03;;;;;;;23.04;63.13;100098.30;;;;-48
2020/08/02 14:48:49;;;;;;;6.91;2.78;;;;;;;23.05;63.03;100094.34;;;;-44
2020/08/02 14:51:49;;;;;;;6.93;3.07;;;;;;;23.04;63.08;100096.23;;;;-51
2020/08/02 14:54:49;;;;;;;13.66;3.21;;;;;;;23.04;63.21;100096.65;;;;-49
2020/08/02 14:57:48;;;;;;;17.19;3.42;;;;;;;23.05;63.34;100088.12;;;;-46
2020/08/02 15:00:51;;;;;;;12.60;3.29;;;;;;;23.07;63.19;100093.17;;;;-47
2020/08/02 15:06:48;;;;;;;9.13;3.11;;;;;;;23.07;63.29;100086.47;;;;-49
2020/08/02 15:09:48;;;;;;;6.51;3.21;;;;;;;23.06;63.21;100089.66;;;;-50
2020/08/02 15:12:48;;;;;;;7.52;3.21;;;;;;;23.06;63.19;100084.11;;;;-51
2020/08/02 15:15:48;;;;;;;10.83;3.20;;;;;;;23.06;63.24;100088.05;;;;-51
2020/08/02 15:18:48;;;;;;;9.45;3.21;;;;;;;23.05;63.23;100083.29;;;;-51
2020/08/02 15:21:48;;;;;;;6.22;2.72;;;;;;;23.05;63.23;100079.47;;;;-51
2020/08/02 15:24:48;;;;;;;10.11;3.43;;;;;;;23.04;63.19;100076.87;;;;-52
2020/08/02 15:27:49;;;;;;;7.21;3.27;;;;;;;23.03;63.13;100075.89;;;;-50
2020/08/02 15:30:48;;;;;;;7.89;3.18;;;;;;;23.03;63.12;100072.88;;;;-51
2020/08/02 15:33:48;;;;;;;9.45;3.39;;;;;;;23.02;63.08;100076.91;;;;-51
2020/08/02 15:36:48;;;;;;;3.78;2.89;;;;;;;23.01;63.01;100073.70;;;;-51
2020/08/02 15:39:48;;;;;;;8.95;3.03;;;;;;;23.01;63.06;100068.89;;;;-51
2020/08/02 15:42:48;;;;;;;5.39;3.17;;;;;;;23.01;63.00;100066.11;;;;-52
2020/08/02 15:45:48;;;;;;;7.17;2.91;;;;;;;23.00;63.02;100066.77;;;;-51
2020/08/02 15:48:49;;;;;;;6.63;2.98;;;;;;;22.99;63.00;100067.49;;;;-51
2020/08/02 15:51:49;;;;;;;4.97;3.18;;;;;;;22.99;62.96;100065.29;;;;-51
2020/08/02 15:54:49;;;;;;;5.00;3.29;;;;;;;22.98;63.02;100065.47;;;;-51
2020/08/02 15:57:49;;;;;;;4.41;2.95;;;;;;;22.98;62.92;100061.64;;;;-51
2020/08/02 16:00:48;;;;;;;5.95;2.96;;;;;;;22.98;62.90;100058.78;;;;-52
2020/08/02 16:03:48;;;;;;;5.00;2.87;;;;;;;22.97;62.95;100059.84;;;;-51
2020/08/02 16:06:48;;;;;;;3.89;2.95;;;;;;;22.97;62.92;100058.71;;;;-51
2020/08/02 16:09:48;;;;;;;3.25;2.85;;;;;;;22.97;62.89;100058.13;;;;-51
2020/08/02 16:12:48;;;;;;;5.23;3.13;;;;;;;22.96;62.90;100054.88;;;;-51
2020/08/02 16:15:48;;;;;;;3.86;3.22;;;;;;;22.96;62.84;100051.88;;;;-50
2020/08/02 16:18:48;;;;;;;3.37;2.93;;;;;;;22.95;62.87;100054.42;;;;-51
2020/08/02 16:21:49;;;;;;;4.98;3.03;;;;;;;22.95;62.88;100053.11;;;;-51
2020/08/02 16:24:49;;;;;;;3.43;3.05;;;;;;;22.95;62.82;100047.97;;;;-51
2020/08/02 16:27:48;;;;;;;3.13;2.69;;;;;;;22.94;62.88;100045.92;;;;-51
2020/08/02 16:30:48;;;;;;;4.68;3.02;;;;;;;22.95;62.84;100040.92;;;;-51
2020/08/02 16:33:48;;;;;;;3.92;2.89;;;;;;;22.95;62.83;100044.36;;;;-50
2020/08/02 16:36:48;;;;;;;3.47;2.87;;;;;;;22.94;62.82;100045.77;;;;-50
2020/08/02 16:39:48;;;;;;;3.09;2.79;;;;;;;22.94;62.83;100044.88;;;;-52
2020/08/02 16:42:49;;;;;;;5.61;3.24;;;;;;;22.93;62.84;100039.73;;;;-53
2020/08/02 16:45:48;;;;;;;7.36;3.42;;;;;;;22.94;62.85;100035.31;;;;-51
2020/08/02 16:48:49;;;;;;;11.56;3.94;;;;;;;22.95;63.07;100035.94;;;;-47
2020/08/02 16:51:49;;;;;;;8.70;3.36;;;;;;;22.96;63.12;100032.42;;;;-52
2020/08/02 16:54:49;;;;;;;6.77;3.19;;;;;;;22.97;63.10;100028.73;;;;-54